Time;durP1;ratioP1;P1;durP2;ratioP2;P2;SDS_P1;SDS_P2;PMS_P1;PMS_P2;Temp;Humidity;BMP_temperature;BMP_pressure;BME280_temperature;BME280_humidity;BME280_pressure;Samples;Min_cycle;Max_cycle;Signal;HPM_P1;HPM_P2
2022/09/22 00:01:10;;;;;;;3.3;2;;;;;;;;;;;;;
2022/09/22 00:03:48;;;;;;;2.1;1.5;;;;;;;;;;;;;
2022/09/22 00:06:12;;;;;;;4.2;1.7;;;;;;;;;;;;;
2022/09/22 00:08:38;;;;;;;2.6;1.6;;;;;;;;;;;;;
2022/09/22 00:11:03;;;;;;;4.2;1.6;;;;;;;;;;;;;
2022/09/22 00:13:28;;;;;;;2.1;1.6;;;;;;;;;;;;;
2022/09/22 00:15:53;;;;;;;2.2;1.6;;;;;;;;;;;;;
2022/09/22 00:18:20;;;;;;;5.7;1.8;;;;;;;;;;;;;
2022/09/22 00:20:45;;;;;;;1.5;1.4;;;;;;;;;;;;;
2022/09/22 00:23:11;;;;;;;1.7;1.3;;;;;;;;;;;;;
2022/09/22 00:25:36;;;;;;;3.6;1.4;;;;;;;;;;;;;
2022/09/22 00:28:01;;;;;;;1.9;1.3;;;;;;;;;;;;;
2022/09/22 00:30:26;;;;;;;3.2;1.5;;;;;;;;;;;;;
2022/09/22 00:32:51;;;;;;;1.7;1.3;;;;;;;;;;;;;
2022/09/22 00:35:16;;;;;;;2.4;1.6;;;;;;;;;;;;;
2022/09/22 00:37:41;;;;;;;2;1.4;;;;;;;;;;;;;
2022/09/22 00:40:09;;;;;;;2.5;1.5;;;;;;;;;;;;;
2022/09/22 00:42:34;;;;;;;1.9;1.4;;;;;;;;;;;;;
2022/09/22 00:45:00;;;;;;;2.6;1.4;;;;;;;;;;;;;
2022/09/22 00:47:24;;;;;;;2.6;1.5;;;;;;;;;;;;;
2022/09/22 00:49:52;;;;;;;2.4;1.6;;;;;;;;;;;;;
2022/09/22 00:52:17;;;;;;;3.1;1.6;;;;;;;;;;;;;
2022/09/22 00:54:43;;;;;;;3;1.3;;;;;;;;;;;;;
2022/09/22 00:57:08;;;;;;;2.9;1.4;;;;;;;;;;;;;
2022/09/22 00:59:51;;;;;;;2;1.4;;;;;;;;;;;;;
2022/09/22 01:01:58;;;;;;;1.3;1.2;;;;;;;;;;;;;
2022/09/22 01:04:23;;;;;;;2.9;1.7;;;;;;;;;;;;;
2022/09/22 01:06:49;;;;;;;1.7;1.5;;;;;;;;;;;;;
2022/09/22 01:09:14;;;;;;;1.4;1.3;;;;;;;;;;;;;
2022/09/22 01:11:39;;;;;;;1.8;1.3;;;;;;;;;;;;;
2022/09/22 01:14:04;;;;;;;2.4;1.3;;;;;;;;;;;;;
2022/09/22 01:16:30;;;;;;;1.5;1.3;;;;;;;;;;;;;
2022/09/22 01:18:55;;;;;;;2.4;1.5;;;;;;;;;;;;;
2022/09/22 01:21:20;;;;;;;1.9;1.6;;;;;;;;;;;;;
2022/09/22 01:23:46;;;;;;;3.2;1.6;;;;;;;;;;;;;
2022/09/22 01:26:12;;;;;;;1.9;1.6;;;;;;;;;;;;;
2022/09/22 01:28:37;;;;;;;1.7;1.6;;;;;;;;;;;;;
2022/09/22 01:31:02;;;;;;;2.6;1.6;;;;;;;;;;;;;
2022/09/22 01:33:27;;;;;;;2.2;1.5;;;;;;;;;;;;;
2022/09/22 01:35:52;;;;;;;1.5;1.4;;;;;;;;;;;;;
2022/09/22 01:38:17;;;;;;;2.5;1.6;;;;;;;;;;;;;
2022/09/22 01:40:43;;;;;;;3.3;1.4;;;;;;;;;;;;;
2022/09/22 01:43:10;;;;;;;2.3;1.5;;;;;;;;;;;;;
2022/09/22 01:45:37;;;;;;;1.7;1.5;;;;;;;;;;;;;
2022/09/22 01:48:02;;;;;;;2.5;1.4;;;;;;;;;;;;;
2022/09/22 01:50:28;;;;;;;1.6;1.5;;;;;;;;;;;;;
2022/09/22 01:52:53;;;;;;;1.5;1.3;;;;;;;;;;;;;
2022/09/22 01:55:21;;;;;;;2.3;1.6;;;;;;;;;;;;;
2022/09/22 01:57:46;;;;;;;1.6;1.5;;;;;;;;;;;;;
2022/09/22 02:00:14;;;;;;;3;1.6;;;;;;;;;;;;;
2022/09/22 02:02:38;;;;;;;2;1.4;;;;;;;;;;;;;
2022/09/22 02:05:06;;;;;;;2.4;1.7;;;;;;;;;;;;;
2022/09/22 02:07:32;;;;;;;1.6;1.5;;;;;;;;;;;;;
2022/09/22 02:09:57;;;;;;;2.3;1.7;;;;;;;;;;;;;
2022/09/22 02:12:21;;;;;;;2.8;1.5;;;;;;;;;;;;;
2022/09/22 02:14:46;;;;;;;1.8;1.5;;;;;;;;;;;;;
2022/09/22 02:17:12;;;;;;;1.8;1.4;;;;;;;;;;;;;
2022/09/22 02:19:38;;;;;;;3.4;1.6;;;;;;;;;;;;;
2022/09/22 02:22:02;;;;;;;1.6;1.5;;;;;;;;;;;;;
2022/09/22 02:24:29;;;;;;;1.6;1.5;;;;;;;;;;;;;
2022/09/22 02:26:54;;;;;;;1.8;1.4;;;;;;;;;;;;;
2022/09/22 02:29:19;;;;;;;1.6;1.5;;;;;;;;;;;;;
2022/09/22 02:31:46;;;;;;;1.7;1.4;;;;;;;;;;;;;
2022/09/22 02:34:12;;;;;;;1.6;1.4;;;;;;;;;;;;;
2022/09/22 02:36:38;;;;;;;1.8;1.7;;;;;;;;;;;;;
2022/09/22 02:39:03;;;;;;;2;1.4;;;;;;;;;;;;;
2022/09/22 02:41:29;;;;;;;1.9;1.5;;;;;;;;;;;;;
2022/09/22 02:43:55;;;;;;;2.1;1.4;;;;;;;;;;;;;
2022/09/22 02:46:20;;;;;;;1.5;1.2;;;;;;;;;;;;;
2022/09/22 02:48:45;;;;;;;1.6;1.5;;;;;;;;;;;;;
2022/09/22 02:51:10;;;;;;;2;1.7;;;;;;;;;;;;;
2022/09/22 02:53:51;;;;;;;3;2;;;;;;;;;;;;;
2022/09/22 02:56:16;;;;;;;5.3;1.7;;;;;;;;;;;;;
2022/09/22 02:58:41;;;;;;;2.4;1.9;;;;;;;;;;;;;
2022/09/22 03:01:07;;;;;;;3.8;1.7;;;;;;;;;;;;;
2022/09/22 03:03:32;;;;;;;2.6;1.7;;;;;;;;;;;;;
2022/09/22 03:06:00;;;;;;;2.9;2.1;;;;;;;;;;;;;
2022/09/22 03:08:25;;;;;;;2.3;1.7;;;;;;;;;;;;;
2022/09/22 03:10:51;;;;;;;6.1;2.5;;;;;;;;;;;;;
2022/09/22 03:13:17;;;;;;;2.8;1.7;;;;;;;;;;;;;
2022/09/22 03:15:45;;;;;;;3.7;2.2;;;;;;;;;;;;;
2022/09/22 03:18:10;;;;;;;3.6;2.1;;;;;;;;;;;;;
2022/09/22 03:20:36;;;;;;;4.5;2.6;;;;;;;;;;;;;
2022/09/22 03:23:02;;;;;;;4.2;2.1;;;;;;;;;;;;;
2022/09/22 03:25:28;;;;;;;4.7;2.4;;;;;;;;;;;;;
2022/09/22 03:27:53;;;;;;;2.9;2;;;;;;;;;;;;;
2022/09/22 03:30:19;;;;;;;3.1;2.2;;;;;;;;;;;;;
2022/09/22 03:32:44;;;;;;;3.4;2.2;;;;;;;;;;;;;
2022/09/22 03:35:13;;;;;;;4;2.5;;;;;;;;;;;;;
2022/09/22 03:37:38;;;;;;;2.6;1.7;;;;;;;;;;;;;
2022/09/22 03:40:04;;;;;;;2.3;1.8;;;;;;;;;;;;;
2022/09/22 03:42:33;;;;;;;3.5;1.9;;;;;;;;;;;;;
2022/09/22 03:45:00;;;;;;;2.1;1.8;;;;;;;;;;;;;
2022/09/22 03:47:25;;;;;;;1.9;1.7;;;;;;;;;;;;;
2022/09/22 03:49:50;;;;;;;2.7;2.3;;;;;;;;;;;;;
2022/09/22 03:52:15;;;;;;;2;1.8;;;;;;;;;;;;;
2022/09/22 03:54:42;;;;;;;1.8;1.7;;;;;;;;;;;;;
2022/09/22 03:57:07;;;;;;;3;1.7;;;;;;;;;;;;;
2022/09/22 03:59:33;;;;;;;2.2;1.7;;;;;;;;;;;;;
2022/09/22 04:02:33;;;;;;;1.8;1.5;;;;;;;4.25;91.80176;942.6248;;;;
2022/09/22 04:11:07;;;;;;;3;2.2;;;;;;;3.9;92.62598;942.6461;;;;
2022/09/22 04:13:35;;;;;;;3;1.7;;;;;;;3.68;93.93848;942.7;;;;
2022/09/22 04:16:01;;;;;;;2.3;2.1;;;;;;;3.75;93.69727;942.7281;;;;
2022/09/22 04:18:28;;;;;;;2.5;2;;;;;;;3.84;93.36523;942.7081;;;;
2022/09/22 04:20:56;;;;;;;5.8;2.3;;;;;;;3.85;93.17578;942.7322;;;;
2022/09/22 04:23:21;;;;;;;2.5;2;;;;;;;3.82;93.53125;942.7006;;;;
2022/09/22 04:25:46;;;;;;;2.8;1.8;;;;;;;3.9;93.2998;942.7526;;;;
2022/09/22 04:28:11;;;;;;;5.1;2;;;;;;;3.83;93.06152;942.7417;;;;
2022/09/22 04:30:42;;;;;;;2.6;1.9;;;;;;;3.92;92.78711;942.702;;;;
2022/09/22 04:33:06;;;;;;;3;1.7;;;;;;;4.07;91.92285;942.7025;;;;
2022/09/22 04:35:51;;;;;;;3.4;2;;;;;;;4.13;91.24805;942.7228;;;;
2022/09/22 04:38:25;;;;;;;4.6;2.8;;;;;;;4.17;91.19922;942.7199;;;;
2022/09/22 04:40:57;;;;;;;4.2;2.8;;;;;;;4.09;91.56445;942.7101;;;;
2022/09/22 04:43:30;;;;;;;6.7;3.1;;;;;;;4.05;91.90527;942.7062;;;;
2022/09/22 04:46:04;;;;;;;4.1;2.6;;;;;;;4.17;91.3457;942.6742;;;;
2022/09/22 04:48:36;;;;;;;3.5;2.3;;;;;;;4.24;90.66406;942.6434;;;;
2022/09/22 04:51:05;;;;;;;3.5;2.4;;;;;;;4.18;90.67285;942.7753;;;;
2022/09/22 04:53:31;;;;;;;3.9;2.2;;;;;;;4.09;90.9707;942.7617;;;;
2022/09/22 04:56:04;;;;;;;2.9;2.2;;;;;;;3.9;92.04297;942.7906;;;;
2022/09/22 04:58:30;;;;;;;5.4;2.2;;;;;;;3.99;91.83594;942.7752;;;;
2022/09/22 05:00:55;;;;;;;4.7;2.6;;;;;;;3.88;92.4209;942.7692;;;;
2022/09/22 05:03:26;;;;;;;3;2.3;;;;;;;3.88;92.50879;942.788;;;;
2022/09/22 05:05:55;;;;;;;3.8;2.1;;;;;;;4.01;91.65918;942.7651;;;;
2022/09/22 05:08:28;;;;;;;3.6;2.6;;;;;;;4.04;91.63379;942.776;;;;
2022/09/22 05:10:58;;;;;;;3;2.3;;;;;;;3.96;91.9082;942.8293;;;;
2022/09/22 05:13:24;;;;;;;3.3;2.3;;;;;;;4.04;91.4873;942.8619;;;;
2022/09/22 05:15:51;;;;;;;5.2;3.2;;;;;;;4.03;91.25879;942.8511;;;;
2022/09/22 05:18:22;;;;;;;5.2;3.6;;;;;;;3.99;91.41992;942.8328;;;;
2022/09/22 05:20:46;;;;;;;4;2.9;;;;;;;4.02;92.07715;942.7986;;;;
2022/09/22 05:23:13;;;;;;;4.5;3.5;;;;;;;4.12;91.72949;942.8487;;;;
2022/09/22 05:25:38;;;;;;;7;3.3;;;;;;;4.06;91.1543;942.8691;;;;
2022/09/22 05:28:06;;;;;;;4.4;2.6;;;;;;;4.03;90.94531;942.8377;;;;
2022/09/22 05:30:31;;;;;;;2.5;2.1;;;;;;;4.03;91.05957;942.8411;;;;
2022/09/22 05:33:00;;;;;;;4.3;2.3;;;;;;;4.12;91.84277;942.87;;;;
2022/09/22 05:35:33;;;;;;;9.5;4.8;;;;;;;4.15;91.75781;942.935;;;;
2022/09/22 05:38:06;;;;;;;4.3;2.5;;;;;;;3.99;91.11621;942.8903;;;;
2022/09/22 05:40:37;;;;;;;3;2.2;;;;;;;3.91;91.94336;942.9058;;;;
2022/09/22 05:43:02;;;;;;;5.9;2.5;;;;;;;3.99;92.36426;942.8517;;;;
2022/09/22 05:45:52;;;;;;;4.9;2.8;;;;;;;4.46;93.25391;942.9116;;;;
2022/09/22 05:48:22;;;;;;;3.9;1.8;;;;;;;6.12;86.63281;942.8539;;;;
2022/09/22 05:50:53;;;;;;;4.4;1.8;;;;;;;7.1;79.94531;942.8231;;;;
2022/09/22 05:53:18;;;;;;;2.3;2;;;;;;;7.45;76.65527;942.8614;;;;
2022/09/22 05:55:48;;;;;;;4.8;2.3;;;;;;;8.32;73.31152;942.8715;;;;
2022/09/22 05:58:18;;;;;;;4.7;2.3;;;;;;;8.8;70.82324;942.8621;;;;
2022/09/22 06:00:43;;;;;;;5.3;3.2;;;;;;;9.33;68.40625;942.823;;;;
2022/09/22 06:03:08;;;;;;;6.8;2.5;;;;;;;9.2;68.02148;942.758;;;;
2022/09/22 06:05:36;;;;;;;5.2;2.1;;;;;;;9.09;69.30176;942.8104;;;;
2022/09/22 06:08:02;;;;;;;5.2;2.7;;;;;;;9.58;67.71582;942.7569;;;;
2022/09/22 06:14:05;;;;;;;2.4;1.9;;;;;;;10.4;65.13965;942.796;;;;
2022/09/22 06:16:30;;;;;;;4.9;2.2;;;;;;;10.19;65.67969;942.7186;;;;
2022/09/22 06:19:01;;;;;;;3.4;2.4;;;;;;;10.96;63.41797;942.6417;;;;
2022/09/22 06:21:29;;;;;;;3.9;2.3;;;;;;;11.06;63.05664;942.5638;;;;
2022/09/22 06:23:56;;;;;;;5.6;2.3;;;;;;;11.07;64.07422;942.6381;;;;
2022/09/22 06:29:20;;;;;;;3.6;1.7;;;;;;;10.3;65.0791;942.6262;;;;
2022/09/22 06:31:47;;;;;;;2.3;1.5;;;;;;;10.53;65.71973;942.6512;;;;
2022/09/22 06:34:12;;;;;;;4.3;2.3;;;;;;;10.13;65.62305;942.6848;;;;
2022/09/22 06:36:41;;;;;;;6.3;3.8;;;;;;;10.31;64.89746;942.6694;;;;
2022/09/22 06:39:11;;;;;;;7.5;3.4;;;;;;;10.23;66.03809;942.6219;;;;
2022/09/22 06:47:23;;;;;;;4.2;2.1;;;;;;;9.85;67.90625;942.6053;;;;
2022/09/22 06:49:52;;;;;;;1.9;1.5;;;;;;;9.62;67.82422;942.5877;;;;
2022/09/22 06:52:16;;;;;;;2;1.3;;;;;;;9.65;69.77832;942.5686;;;;
2022/09/22 06:54:49;;;;;;;1.6;1.3;;;;;;;9.21;69.80859;942.6135;;;;
2022/09/22 06:57:15;;;;;;;3;1.2;;;;;;;9.58;69.93848;942.5407;;;;
2022/09/22 06:59:39;;;;;;;2.3;1.8;;;;;;;9.87;69.67773;942.5644;;;;
2022/09/22 07:02:10;;;;;;;2.5;2.3;;;;;;;10.09;68.38965;942.5519;;;;
2022/09/22 07:04:40;;;;;;;3.8;1.9;;;;;;;10.65;68.53711;942.5356;;;;
2022/09/22 07:07:10;;;;;;;3.1;2;;;;;;;11.14;66.28027;942.5433;;;;
2022/09/22 07:20:58;;;;;;;0.9;0.8;;;;;;;11.46;64.52246;942.3745;;;;
2022/09/22 07:23:24;;;;;;;1.1;0.7;;;;;;;11.48;62.78516;942.401;;;;
2022/09/22 07:25:49;;;;;;;1.2;1.1;;;;;;;11.81;61.11621;942.4146;;;;
2022/09/22 07:28:14;;;;;;;2.7;1;;;;;;;12.25;60.58105;942.4317;;;;
2022/09/22 07:30:42;;;;;;;2.1;1.2;;;;;;;12.45;58.7627;942.4419;;;;
2022/09/22 07:36:48;;;;;;;1.5;0.8;;;;;;;12.69;57.52148;942.341;;;;
2022/09/22 07:39:18;;;;;;;0.9;0.9;;;;;;;13.46;57.03711;942.3353;;;;
2022/09/22 07:41:46;;;;;;;4;1;;;;;;;13.51;55.44629;942.27;;;;
2022/09/22 07:46:36;;;;;;;1;0.9;;;;;;;14.77;53.21973;942.3069;;;;
2022/09/22 07:49:01;;;;;;;2.1;0.9;;;;;;;15.65;50.58887;942.2764;;;;
2022/09/22 07:51:32;;;;;;;0.8;0.8;;;;;;;15.45;50.1377;942.2813;;;;
2022/09/22 07:54:06;;;;;;;1.6;0.9;;;;;;;15.18;50.29297;942.2597;;;;
2022/09/22 07:56:27;;;;;;;0.7;0.7;;;;;;;15.59;50.5459;942.2113;;;;
2022/09/22 07:58:55;;;;;;;1.9;1;;;;;;;16.07;48.98242;942.1964;;;;
2022/09/22 08:01:20;;;;;;;1.2;1;;;;;;;16.69;47.86035;942.1492;;;;
2022/09/22 08:03:46;;;;;;;4.4;1;;;;;;;16.83;48.12988;942.1774;;;;
2022/09/22 08:06:11;;;;;;;1.7;1.3;;;;;;;16.35;47.52246;942.1926;;;;
2022/09/22 08:08:36;;;;;;;1.5;1.2;;;;;;;16.71;47.68848;942.1853;;;;
2022/09/22 08:11:01;;;;;;;1.7;1;;;;;;;16.63;47.91016;942.1792;;;;
2022/09/22 08:13:33;;;;;;;1.9;1;;;;;;;16.11;48.27148;942.1978;;;;
2022/09/22 08:16:04;;;;;;;0.8;0.8;;;;;;;15.89;47.77344;942.1713;;;;
2022/09/22 08:18:29;;;;;;;1.3;0.8;;;;;;;16.39;48.08301;942.1031;;;;
2022/09/22 08:20:54;;;;;;;1.5;0.9;;;;;;;16.3;49.21777;942.1046;;;;
2022/09/22 08:23:51;;;;;;;1.2;0.9;;;;;;;17.66;45.06543;942.0068;;;;
2022/09/22 08:26:19;;;;;;;0.8;0.8;;;;;;;19.21;41.95117;942.0009;;;;
2022/09/22 08:28:45;;;;;;;1.5;0.8;;;;;;;19.61;41.81445;942.0122;;;;
2022/09/22 08:31:09;;;;;;;1.4;0.9;;;;;;;21.1;37.82617;941.9396;;;;
2022/09/22 08:33:35;;;;;;;1.1;0.9;;;;;;;21.06;37.91699;941.9673;;;;
2022/09/22 08:36:02;;;;;;;1.7;1.1;;;;;;;22.28;35.44141;941.9361;;;;
2022/09/22 08:38:29;;;;;;;2.2;1;;;;;;;21.33;35.69336;941.9213;;;;
2022/09/22 08:40:54;;;;;;;1.4;1;;;;;;;22.32;35.20898;941.8239;;;;
2022/09/22 08:43:19;;;;;;;1.5;0.9;;;;;;;23.34;34.1377;941.8692;;;;
2022/09/22 08:45:45;;;;;;;1.3;0.8;;;;;;;24.32;31.45703;941.8536;;;;
2022/09/22 08:53:04;;;;;;;0.8;0.7;;;;;;;25.81;29.62207;941.824;;;;
2022/09/22 08:55:35;;;;;;;1.1;0.8;;;;;;;25.32;31.43262;941.7809;;;;
2022/09/22 08:58:02;;;;;;;1;0.9;;;;;;;25.27;30.49707;941.8043;;;;
2022/09/22 09:00:27;;;;;;;0.9;0.8;;;;;;;24.69;31.35254;941.7129;;;;
2022/09/22 09:02:58;;;;;;;1.1;0.7;;;;;;;23.68;33.69336;941.7166;;;;
2022/09/22 09:06:14;;;;;;;0.8;0.8;;;;;;;23.04;34.87891;941.7089;;;;
2022/09/22 09:08:40;;;;;;;0.8;0.7;;;;;;;22.13;35.74512;941.7797;;;;
2022/09/22 09:15:00;;;;;;;0.9;0.8;;;;;;;22.11;36.07324;941.738;;;;
2022/09/22 09:17:29;;;;;;;0.7;0.7;;;;;;;20.8;39.7998;941.7327;;;;
2022/09/22 09:19:54;;;;;;;0.7;0.7;;;;;;;20.55;38.59668;941.7344;;;;
2022/09/22 09:22:49;;;;;;;1.8;1.1;;;;;;;20.42;40.30176;941.6942;;;;
2022/09/22 09:27:58;;;;;;;2.6;1.2;;;;;;;19.72;43.10645;941.6669;;;;
2022/09/22 09:30:23;;;;;;;1.2;1.1;;;;;;;18.99;43.33789;941.6284;;;;
2022/09/22 09:35:17;;;;;;;3.4;1;;;;;;;17.96;44.07422;941.5927;;;;
2022/09/22 09:37:42;;;;;;;1.5;0.6;;;;;;;18.19;46.11719;941.5414;;;;
2022/09/22 09:40:07;;;;;;;1.8;0.8;;;;;;;17.51;47.8457;941.538;;;;
2022/09/22 09:42:37;;;;;;;1.1;0.7;;;;;;;17.3;46.12988;941.5176;;;;
2022/09/22 09:45:03;;;;;;;0.5;0.5;;;;;;;16.45;49.17578;941.4945;;;;
2022/09/22 09:47:28;;;;;;;1.4;0.8;;;;;;;16.05;53.37695;941.3939;;;;
2022/09/22 09:49:54;;;;;;;1.9;0.9;;;;;;;16.12;50.70117;941.51;;;;
2022/09/22 09:52:21;;;;;;;1.3;1;;;;;;;16.5;50.39844;941.4877;;;;
2022/09/22 09:54:47;;;;;;;52.1;24.2;;;;;;;16.88;54.58887;941.4706;;;;
2022/09/22 09:57:14;;;;;;;11.4;5.9;;;;;;;16.89;51.10352;941.4497;;;;
2022/09/22 10:02:06;;;;;;;0.9;0.9;;;;;;;16.63;51.54688;941.3558;;;;
2022/09/22 10:04:31;;;;;;;0.9;0.7;;;;;;;16.25;52.74023;941.3599;;;;
2022/09/22 10:06:57;;;;;;;2.5;1;;;;;;;16.15;57.18066;941.3323;;;;
2022/09/22 10:09:22;;;;;;;2;0.9;;;;;;;16.18;55.87891;941.2886;;;;
2022/09/22 10:11:50;;;;;;;0.9;0.9;;;;;;;16.42;56.22168;941.2416;;;;
2022/09/22 10:14:15;;;;;;;1.3;1.2;;;;;;;16.55;56.28418;941.2276;;;;
2022/09/22 10:16:40;;;;;;;1.1;0.9;;;;;;;16.68;53.46387;941.2294;;;;
2022/09/22 10:19:07;;;;;;;1.8;1;;;;;;;17.13;50.5752;941.1771;;;;
2022/09/22 10:21:38;;;;;;;1.6;1;;;;;;;17.63;50.80664;941.1728;;;;
2022/09/22 10:24:03;;;;;;;2.1;0.8;;;;;;;17.44;48.52148;941.1362;;;;
2022/09/22 10:26:29;;;;;;;1.2;1.1;;;;;;;17.42;49.28516;941.1833;;;;
2022/09/22 10:28:53;;;;;;;1.2;0.8;;;;;;;18.02;48.83008;941.0793;;;;
2022/09/22 10:31:23;;;;;;;1.4;1.1;;;;;;;17.88;49.37207;941.0999;;;;
2022/09/22 10:33:50;;;;;;;2.9;1;;;;;;;18.57;46.9375;941.1651;;;;
2022/09/22 10:36:15;;;;;;;1.4;1.1;;;;;;;19.68;44.3623;941.1628;;;;
2022/09/22 10:41:56;;;;;;;2.3;0.9;;;;;;;19.59;47.55957;941.1152;;;;
2022/09/22 10:44:24;;;;;;;1.1;1;;;;;;;19.98;45.47754;941.0814;;;;
2022/09/22 10:46:49;;;;;;;1.6;0.9;;;;;;;20.74;43.52246;941.098;;;;
2022/09/22 10:49:14;;;;;;;1.1;1;;;;;;;20.6;43.00586;941.0722;;;;
2022/09/22 10:51:41;;;;;;;1.8;0.9;;;;;;;20.7;43.62305;941.0667;;;;
2022/09/22 10:54:11;;;;;;;1.4;1;;;;;;;21.12;42.05176;941.0181;;;;
2022/09/22 10:56:36;;;;;;;1;0.9;;;;;;;20.53;44.66992;941.0406;;;;
2022/09/22 10:59:01;;;;;;;1.7;0.9;;;;;;;19.77;44.48828;940.9361;;;;
2022/09/22 11:01:28;;;;;;;1.6;1.1;;;;;;;18.82;49.23242;941.0638;;;;
2022/09/22 11:03:53;;;;;;;1.1;1;;;;;;;18.16;51.55371;941.0525;;;;
2022/09/22 11:13:37;;;;;;;1.6;1;;;;;;;21.84;41.28711;940.8826;;;;
2022/09/22 11:16:06;;;;;;;1.6;1.2;;;;;;;22.31;41.6123;940.8845;;;;
2022/09/22 11:18:51;;;;;;;1.1;0.9;;;;;;;22.21;41.37988;940.8054;;;;
2022/09/22 11:21:15;;;;;;;1.5;0.8;;;;;;;22.4;41.10449;940.7037;;;;
2022/09/22 11:23:40;;;;;;;1.2;0.8;;;;;;;22.9;40.44629;940.79;;;;
2022/09/22 11:26:05;;;;;;;1.1;0.8;;;;;;;22.79;40.4248;940.7322;;;;
2022/09/22 11:28:30;;;;;;;1.3;1;;;;;;;22.77;40.63477;940.6548;;;;
2022/09/22 11:30:57;;;;;;;2.1;1;;;;;;;23.16;39.68359;940.6836;;;;
2022/09/22 11:33:21;;;;;;;2.1;1.2;;;;;;;23.57;39.94238;940.6765;;;;
2022/09/22 11:35:45;;;;;;;1.5;1.1;;;;;;;24.78;36.53711;940.6404;;;;
2022/09/22 11:38:13;;;;;;;2.5;1;;;;;;;24.68;38.07227;940.6903;;;;
2022/09/22 11:40:42;;;;;;;2.6;0.8;;;;;;;23.56;40.08203;940.6619;;;;
2022/09/22 11:43:08;;;;;;;1.1;0.9;;;;;;;23.06;40.39063;940.6361;;;;
2022/09/22 11:45:33;;;;;;;4.5;1;;;;;;;22.24;42.63867;940.6481;;;;
2022/09/22 11:47:58;;;;;;;5.8;1;;;;;;;20.63;44.9248;940.5959;;;;
2022/09/22 11:50:25;;;;;;;1.2;1.1;;;;;;;20.13;45.93652;940.5641;;;;
2022/09/22 11:52:50;;;;;;;1.2;0.9;;;;;;;20.17;46.76953;940.551;;;;
2022/09/22 11:55:16;;;;;;;0.8;0.8;;;;;;;19.96;45.62695;940.5685;;;;
2022/09/22 11:57:41;;;;;;;0.8;0.8;;;;;;;20.26;44.70117;940.5775;;;;
2022/09/22 12:00:08;;;;;;;1.3;0.8;;;;;;;19.45;47.42676;940.6233;;;;
2022/09/22 12:02:40;;;;;;;1.5;1.1;;;;;;;19.7;47.55957;940.5781;;;;
2022/09/22 12:05:10;;;;;;;2.4;1;;;;;;;20.19;45.7207;940.4916;;;;
2022/09/22 12:07:43;;;;;;;2;1.1;;;;;;;19.7;47.18555;940.4537;;;;
2022/09/22 12:10:12;;;;;;;2;0.9;;;;;;;20.31;45.25488;940.4468;;;;
2022/09/22 12:12:43;;;;;;;1.1;0.9;;;;;;;20.64;44.2959;940.4465;;;;
2022/09/22 12:15:07;;;;;;;0.9;0.8;;;;;;;21.36;42.78711;940.3876;;;;
2022/09/22 12:17:38;;;;;;;1.4;1;;;;;;;21.92;41.29492;940.3921;;;;
2022/09/22 12:20:03;;;;;;;0.8;0.8;;;;;;;21.81;42.10547;940.387;;;;
2022/09/22 12:22:34;;;;;;;1.5;1.4;;;;;;;21.77;43.07227;940.3842;;;;
2022/09/22 12:24:59;;;;;;;1.2;1;;;;;;;21.8;42.33691;940.3948;;;;
2022/09/22 12:27:24;;;;;;;1;0.8;;;;;;;24.22;37.00977;940.3934;;;;
2022/09/22 12:29:51;;;;;;;1.7;1;;;;;;;24.42;37.74414;940.3381;;;;
2022/09/22 12:32:16;;;;;;;1.7;1;;;;;;;25.16;35.30371;940.301;;;;
2022/09/22 12:34:41;;;;;;;1;0.7;;;;;;;27.27;31.73535;940.3359;;;;
2022/09/22 12:37:07;;;;;;;0.9;0.9;;;;;;;28.18;30.17188;940.2329;;;;
2022/09/22 12:39:34;;;;;;;0.7;0.7;;;;;;;27.97;30.89453;940.3159;;;;
2022/09/22 12:41:59;;;;;;;1.3;0.7;;;;;;;28.7;29.10059;940.337;;;;
2022/09/22 12:44:27;;;;;;;0.8;0.7;;;;;;;29.58;27.35742;940.2561;;;;
2022/09/22 12:46:55;;;;;;;1.4;0.7;;;;;;;30.79;26.12793;940.2364;;;;
2022/09/22 12:49:20;;;;;;;0.8;0.8;;;;;;;29.61;26.75098;940.2172;;;;
2022/09/22 12:51:45;;;;;;;1.5;0.8;;;;;;;29.09;27.75586;940.2126;;;;
2022/09/22 12:54:10;;;;;;;1.6;0.7;;;;;;;30.57;26.24609;940.1959;;;;
2022/09/22 12:56:37;;;;;;;0.6;0.6;;;;;;;29.42;27.28809;940.2619;;;;
2022/09/22 12:59:02;;;;;;;2.4;0.8;;;;;;;30.2;27.83594;940.197;;;;
2022/09/22 13:01:32;;;;;;;0.7;0.7;;;;;;;28.71;28.44629;940.1397;;;;
2022/09/22 13:03:56;;;;;;;2.4;0.8;;;;;;;29.03;27.40723;940.1312;;;;
2022/09/22 13:06:27;;;;;;;2;0.9;;;;;;;28.74;27.87793;940.11;;;;
2022/09/22 13:08:55;;;;;;;0.8;0.8;;;;;;;27.68;29.08203;940.1425;;;;
2022/09/22 13:11:20;;;;;;;1.5;0.6;;;;;;;28.83;27.27539;940.1247;;;;
2022/09/22 13:13:47;;;;;;;0.9;0.8;;;;;;;28.19;28.80566;940.1019;;;;
2022/09/22 13:16:12;;;;;;;0.9;0.7;;;;;;;28.17;29.32715;940.1499;;;;
2022/09/22 13:18:39;;;;;;;1.1;0.8;;;;;;;28.48;28.18262;940.0986;;;;
2022/09/22 13:21:04;;;;;;;1.5;0.8;;;;;;;29.14;27.33105;940.0708;;;;
2022/09/22 13:23:36;;;;;;;1.6;0.8;;;;;;;28.48;27.79004;940.0553;;;;
2022/09/22 13:26:03;;;;;;;1.2;0.7;;;;;;;28.26;28.19238;940.0864;;;;
2022/09/22 13:28:28;;;;;;;1;0.6;;;;;;;28.25;28.04883;940.0826;;;;
2022/09/22 13:30:53;;;;;;;1.3;0.7;;;;;;;28.16;27.66309;940.0519;;;;
2022/09/22 13:33:24;;;;;;;2.3;0.8;;;;;;;27.54;29.09668;940.0275;;;;
2022/09/22 13:35:48;;;;;;;1.3;0.8;;;;;;;26.89;29.75293;940.0392;;;;
2022/09/22 13:38:15;;;;;;;1.3;1;;;;;;;27.58;29.08691;940.0574;;;;
2022/09/22 13:40:40;;;;;;;0.8;0.8;;;;;;;27.58;29.1709;940.0259;;;;
2022/09/22 13:43:08;;;;;;;2.8;0.7;;;;;;;25.6;32.06641;940.0028;;;;
2022/09/22 13:45:33;;;;;;;2.8;0.8;;;;;;;24.47;33.80078;939.9595;;;;
2022/09/22 13:47:58;;;;;;;1.5;0.7;;;;;;;24.61;32.9502;939.981;;;;
2022/09/22 13:50:23;;;;;;;0.5;0.5;;;;;;;25.25;31.79297;939.9542;;;;
2022/09/22 13:52:51;;;;;;;1.2;0.8;;;;;;;23.9;35.48828;939.9633;;;;
2022/09/22 13:55:20;;;;;;;1.1;1;;;;;;;23.23;35.93945;939.9844;;;;
2022/09/22 13:57:48;;;;;;;1.8;0.9;;;;;;;22.49;36.92383;939.884;;;;
2022/09/22 14:00:13;;;;;;;1.1;0.8;;;;;;;22.74;37.40234;939.883;;;;
2022/09/22 14:02:41;;;;;;;1.7;0.7;;;;;;;22.66;36.84473;939.8387;;;;
2022/09/22 14:05:06;;;;;;;1.3;0.8;;;;;;;22.06;38.62305;939.8962;;;;
2022/09/22 14:07:34;;;;;;;0.8;0.8;;;;;;;22.44;36.52148;939.8953;;;;
2022/09/22 14:09:59;;;;;;;1.1;0.8;;;;;;;22.04;37.77832;939.8212;;;;
2022/09/22 14:12:25;;;;;;;1.5;1;;;;;;;21.29;38.88379;939.8195;;;;
2022/09/22 14:14:50;;;;;;;2.3;0.8;;;;;;;20.72;40.56348;939.9426;;;;
2022/09/22 14:17:15;;;;;;;1.2;0.7;;;;;;;20.41;40.34863;939.9084;;;;
2022/09/22 14:19:40;;;;;;;1.6;0.9;;;;;;;20.41;43.4082;939.9472;;;;
2022/09/22 14:22:08;;;;;;;1.4;0.8;;;;;;;20.67;40.11523;939.9207;;;;
2022/09/22 14:24:33;;;;;;;0.8;0.8;;;;;;;20.64;40.73242;939.928;;;;
2022/09/22 14:26:58;;;;;;;0.9;0.7;;;;;;;20.55;39.55469;939.8848;;;;
2022/09/22 14:29:23;;;;;;;1;0.9;;;;;;;19.16;43.36719;939.9279;;;;
2022/09/22 14:31:50;;;;;;;1.4;0.7;;;;;;;18.98;42.52246;939.9241;;;;
2022/09/22 14:34:13;;;;;;;1.6;0.8;;;;;;;18.41;44.60645;939.9152;;;;
2022/09/22 14:36:39;;;;;;;2.7;0.7;;;;;;;18.19;44.74805;939.8914;;;;
2022/09/22 14:39:04;;;;;;;1.3;0.7;;;;;;;17.66;46.25977;939.8574;;;;
2022/09/22 14:41:31;;;;;;;1.1;1;;;;;;;17.51;46.39551;939.9067;;;;
2022/09/22 14:43:54;;;;;;;1.4;0.8;;;;;;;17.86;46.90918;939.9634;;;;
2022/09/22 14:46:22;;;;;;;1.2;0.7;;;;;;;17.59;47.03027;939.8766;;;;
2022/09/22 14:48:47;;;;;;;1;0.9;;;;;;;17.56;46.09961;939.9366;;;;
2022/09/22 14:51:14;;;;;;;0.8;0.8;;;;;;;17.6;46.54297;939.9698;;;;
2022/09/22 14:53:39;;;;;;;0.8;0.8;;;;;;;17.72;44.76953;939.9684;;;;
2022/09/22 14:56:05;;;;;;;1;0.9;;;;;;;17.22;46.25977;940.0164;;;;
2022/09/22 14:58:30;;;;;;;1.6;0.9;;;;;;;17.25;46.57715;939.9125;;;;
2022/09/22 15:03:23;;;;;;;1.7;0.8;;;;;;;17.57;46.21582;939.959;;;;
2022/09/22 15:05:49;;;;;;;1.1;0.9;;;;;;;17.69;44.80176;939.9673;;;;
2022/09/22 15:08:17;;;;;;;0.8;0.8;;;;;;;17.77;44.90234;939.9677;;;;
2022/09/22 15:10:41;;;;;;;0.8;0.7;;;;;;;17.64;44.32031;939.9589;;;;
2022/09/22 15:13:06;;;;;;;0.7;0.7;;;;;;;17.69;45.12598;939.8723;;;;
2022/09/22 15:15:38;;;;;;;1.3;0.8;;;;;;;17.69;44.82422;939.9006;;;;
2022/09/22 15:18:18;;;;;;;1;0.8;;;;;;;17.74;44.77148;939.928;;;;
2022/09/22 15:20:37;;;;;;;0.8;0.7;;;;;;;17.76;44.07617;939.9495;;;;
2022/09/22 15:23:01;;;;;;;0.7;0.7;;;;;;;17.73;43.7832;939.9161;;;;
2022/09/22 15:25:30;;;;;;;1;0.8;;;;;;;17.65;44.49512;939.95;;;;
2022/09/22 15:27:58;;;;;;;1;0.9;;;;;;;17.69;44.10449;939.9352;;;;
2022/09/22 15:30:24;;;;;;;0.9;0.6;;;;;;;17.69;44.44141;939.9272;;;;
2022/09/22 15:32:51;;;;;;;1.2;0.6;;;;;;;17.65;44.53027;939.8655;;;;
2022/09/22 15:35:17;;;;;;;1;0.7;;;;;;;17.44;44.78613;939.9745;;;;
2022/09/22 15:37:43;;;;;;;1.2;0.9;;;;;;;17.39;43.66797;940.0047;;;;
2022/09/22 15:40:18;;;;;;;0.7;0.7;;;;;;;17.22;43.7207;940.0245;;;;
2022/09/22 15:42:49;;;;;;;0.6;0.6;;;;;;;17.19;44.27539;940.036;;;;
2022/09/22 15:45:16;;;;;;;1.3;1;;;;;;;16.99;43.61621;940.0449;;;;
2022/09/22 15:47:51;;;;;;;0.6;0.6;;;;;;;16.87;43.54785;940.084;;;;
2022/09/22 15:50:18;;;;;;;1.2;1.1;;;;;;;16.78;43.9082;940.0616;;;;
2022/09/22 15:52:50;;;;;;;1.6;0.8;;;;;;;16.64;44.27637;940.037;;;;
2022/09/22 15:55:18;;;;;;;1.9;0.9;;;;;;;16.41;45.05273;940.0228;;;;
2022/09/22 15:57:46;;;;;;;9.1;3.4;;;;;;;16.33;45.79492;940.0446;;;;
2022/09/22 16:00:11;;;;;;;1.7;0.8;;;;;;;16.33;45.50684;940.022;;;;
2022/09/22 16:02:39;;;;;;;1.8;0.8;;;;;;;16.26;45.95117;939.9014;;;;
2022/09/22 16:05:05;;;;;;;1.7;0.8;;;;;;;16.23;45.85547;940.0712;;;;
2022/09/22 16:07:37;;;;;;;10.4;3.7;;;;;;;16.13;46.87402;940.1016;;;;
2022/09/22 16:09:59;;;;;;;4.7;1.9;;;;;;;15.7;47.2207;940.0732;;;;
2022/09/22 16:12:26;;;;;;;0.6;0.6;;;;;;;15.74;47.28223;940.0953;;;;
2022/09/22 16:14:53;;;;;;;1.9;0.9;;;;;;;15.81;47.625;940.0723;;;;
2022/09/22 16:17:18;;;;;;;0.7;0.7;;;;;;;15.84;47.38574;940.1222;;;;
2022/09/22 16:19:43;;;;;;;1.1;1;;;;;;;15.59;48.23633;940.121;;;;
2022/09/22 16:22:08;;;;;;;1.5;1.3;;;;;;;15.4;48.49316;940.1288;;;;
2022/09/22 16:24:54;;;;;;;2.5;1.6;;;;;;;15.41;48.72461;940.1609;;;;
2022/09/22 16:27:10;;;;;;;1.7;1.4;;;;;;;15.37;49.0791;940.1298;;;;
2022/09/22 16:29:36;;;;;;;2.8;2.1;;;;;;;15.29;48.98926;940.1713;;;;
2022/09/22 16:32:01;;;;;;;2.3;1.4;;;;;;;15.22;48.96973;940.1298;;;;
2022/09/22 16:34:28;;;;;;;1.3;1.2;;;;;;;15.15;49.22656;940.1484;;;;
2022/09/22 16:36:53;;;;;;;1.8;1.2;;;;;;;15.03;49.61719;940.1891;;;;
2022/09/22 16:39:18;;;;;;;2.4;1.3;;;;;;;15.07;49.02148;940.2571;;;;
2022/09/22 16:41:46;;;;;;;1;1;;;;;;;15.05;49.52734;940.2708;;;;
2022/09/22 16:44:12;;;;;;;1.7;1.1;;;;;;;14.78;51.26074;940.2336;;;;
2022/09/22 16:46:37;;;;;;;2;1.4;;;;;;;14.73;50.74805;940.2651;;;;
2022/09/22 16:49:36;;;;;;;1.4;0.9;;;;;;;14.78;50.21191;940.264;;;;